Leesburg, VA (20175)

5:54 PM EST en Noviembre 26, 2014 (GMT -0500)
outside leesburg | Change Station
CLOSE
Current Station
Estación meteorológica personal
Location: Leesburg, VA
Altura: 463 ft
Estaciones meteorológicas cercanas

Alt 463 ft 39.08 °N, 77.61 °W | Updated 3 minutes ago

Light Snow
Débil nevada
33.1 ° F
Sensación térmica 33 ° F
N
1.6
Viento Variable Viento desde NE

Hoy
Alta -- | Baja -- ° F
--% Posibilidad de precipitaciones
Ayer
Alta -- | Baja -- ° F
Precip. -- pul
7:05 AM 4:49 PM
Creciente, 23% visible
Presión 29.97 pul
Visibilidad 10.0 Millas
Nubes Muy nublado 800 ft
Nublado 3200 ft
Vientos helados 33 ° F
Punto de rocío 33 ° F
Humedad 99%
Precipitaciones 0.95 pul
Espesor de la nieve No disponible.
UV 0 de una escala de 12
Polen .10 de una escala de 12
Calidad del aire No disponible.
Flu Activity No disponible.
METAR KJYO 262235Z AUTO 34007KT 10SM -SN BKN008 OVC032 02/02 A2997 RMK AO2 P0004

More Conditions Fewer Conditions

Presión 29.97 pul
Visibilidad 10.0 Millas
Nubes Muy nublado 800 ft
Nublado 3200 ft
Vientos helados 33 ° F
Punto de rocío 33 ° F
Humedad 99%
Precipitaciones 0.95 pul
Espesor de la nieve No disponible.
UV 0 de una escala de 12
Polen .10 de una escala de 12
Calidad del aire No disponible.
Flu Activity No disponible.
METAR KJYO 262235Z AUTO 34007KT 10SM -SN BKN008 OVC032 02/02 A2997 RMK AO2 P0004

More Conditions Fewer Conditions

10-Day Weather Forecast

Almanac

Astronomía

Nov. 26, 2014 Salida Puesta
Hora real
Crepúsculo civil
Crepúsculo náutico
Crepúsculo astronómico
Luna
Horas de luz
Horas de luz
Tomorrow will be .
, % of the Moon is Illuminated

Extremos de hoy

Máximos del estado Bajos del estado

Community

WunderPhotos

Upload Photos

1,773,908 ¡fotos cargadas!

WunderBlogs® & News

Nearby

Calidad del aire

  Calidad del aire Índice AQ Contaminante
Not available.

Grosos de nieve

Estación Profundido Altura

Actividad de terremotos

Ciudad Distance Mag. Tiempo y dato
Magnitud mínima muestra es 2,5.

Temperaturas de aguas costeras

Lugar Temperatura

Estaciones meteorológicas cercanas